Terminal Aerodrome Forecast
Issued by NWS

Home | Current Version | Previous Version | Text Only | Print | Product List | Glossary On
Versions: 1 2 3 4 5 6 7 8 9 10 11 12 13 14 15 16
676
FTUS46 KSEW 231120
TAFCLM
TAF
KCLM 231120Z 2312/2412 23005KT P6SM SKC
     FM231600 08008KT P6SM SKC
     FM240500 24005KT P6SM SKC=

USA.gov is the U.S. government's official web portal to all federal, state and local government web resources and services.